Time;durP1;ratioP1;P1;durP2;ratioP2;P2;SDS_P1;SDS_P2;PMS_P1;PMS_P2;Temp;Humidity;BMP_temperature;BMP_pressure;BME280_temperature;BME280_humidity;BME280_pressure;Samples;Min_cycle;Max_cycle;Signal;HPM_P1;HPM_P2
2022/11/20 11:04:42;;;;;;;4.32;2.72;;;;;;;5.85;92.46;96125.75;2102147;27;21242;-62
2022/11/20 11:05:52;;;;;;;6.10;2.85;;;;;;;5.71;91.68;96130.53;2099300;28;20206;-62
2022/11/20 11:07:05;;;;;;;7.32;2.80;;;;;;;6.04;89.91;96126.00;2097871;28;20590;-63
2022/11/20 11:08:19;;;;;;;3.45;2.42;;;;;;;7.19;86.79;96130.38;2097499;28;20341;-63
2022/11/20 11:09:31;;;;;;;7.45;3.42;;;;;;;8.25;83.12;96132.13;2081572;28;20275;-63
2022/11/20 11:10:58;;;;;;;6.75;2.95;;;;;;;7.95;79.67;96122.13;2081653;28;20204;-63
2022/11/20 11:12:00;;;;;;;11.63;4.07;;;;;;;7.00;82.44;96125.06;2080277;28;20198;-63
2022/11/20 11:13:19;;;;;;;17.17;7.88;;;;;;;6.89;83.97;96111.66;2082883;28;20582;-64
2022/11/20 11:14:24;;;;;;;11.82;6.55;;;;;;;6.97;82.91;96106.16;2081712;28;20308;-65
2022/11/20 11:15:38;;;;;;;11.48;5.10;;;;;;;6.42;84.54;96119.47;2081946;28;20202;-64
2022/11/20 11:16:51;;;;;;;8.75;2.95;;;;;;;6.24;84.18;96108.03;2084970;28;20290;-63
2022/11/20 11:17:52;;;;;;;9.15;3.35;;;;;;;6.02;85.42;96111.41;2082073;28;20233;-63
2022/11/20 11:19:11;;;;;;;7.32;3.08;;;;;;;5.78;86.77;96092.34;2080222;28;20307;-64
2022/11/20 11:20:18;;;;;;;3.58;2.15;;;;;;;5.68;86.07;96105.56;2083390;28;20281;-62
2022/11/20 11:21:23;;;;;;;4.20;1.38;;;;;;;5.61;87.17;96111.88;2082718;28;20200;-63
2022/11/20 11:22:27;;;;;;;4.57;1.83;;;;;;;5.65;87.42;96095.34;2082392;28;20243;-63
2022/11/20 11:23:31;;;;;;;9.35;1.65;;;;;;;5.70;87.75;96105.53;2079376;28;20229;-63
2022/11/20 11:24:33;;;;;;;7.90;2.22;;;;;;;5.61;87.47;96093.75;2079217;28;20209;-63
2022/11/20 11:30:16;;;;;;;4.00;1.75;;;;;;;7.08;83.77;96095.38;2107008;27;20578;-63
2022/11/20 11:31:30;;;;;;;6.22;2.30;;;;;;;8.40;79.94;96080.31;2107096;28;20787;-63
2022/11/20 11:32:31;;;;;;;5.00;1.50;;;;;;;8.12;77.54;96097.97;2101229;28;20233;-63
2022/11/20 11:33:35;;;;;;;8.18;1.83;;;;;;;7.33;78.43;96079.66;2100650;28;20288;-63
2022/11/20 11:34:37;;;;;;;3.78;1.23;;;;;;;8.71;74.85;96102.38;2094991;28;20351;-63
2022/11/20 11:35:46;;;;;;;3.10;1.60;;;;;;;9.94;72.50;96078.19;2096226;28;20650;-63
2022/11/20 11:36:57;;;;;;;7.38;1.50;;;;;;;10.06;70.15;96086.31;2094024;28;20207;-64
2022/11/20 11:38:12;;;;;;;5.78;1.60;;;;;;;9.60;70.99;96074.69;2100381;28;20233;-63
2022/11/20 11:39:19;;;;;;;2.75;1.40;;;;;;;9.75;70.81;96074.81;2101031;28;20222;-63
2022/11/20 11:40:22;;;;;;;10.32;2.63;;;;;;;9.02;73.56;96060.13;2093895;28;20285;-63
2022/11/20 11:41:32;;;;;;;16.83;5.00;;;;;;;10.95;69.56;96073.75;2098448;28;20196;-64
2022/11/20 11:42:34;;;;;;;10.93;1.98;;;;;;;11.38;66.86;96060.06;2089694;28;20203;-64
2022/11/20 11:45:06;;;;;;;6.05;2.13;;;;;;;12.03;64.07;96069.38;2094619;28;20193;-64
2022/11/20 11:46:19;;;;;;;6.90;1.77;;;;;;;10.85;65.02;96075.19;2112844;28;20251;-63
2022/11/20 11:47:43;;;;;;;4.72;1.55;;;;;;;10.35;67.39;96068.28;2110420;28;20194;-64
2022/11/20 11:48:55;;;;;;;9.02;1.90;;;;;;;11.55;64.36;96066.09;2097628;28;20219;-63
2022/11/20 11:50:09;;;;;;;5.07;1.55;;;;;;;11.32;63.74;96070.03;2095303;28;20265;-63
2022/11/20 11:51:11;;;;;;;4.88;1.80;;;;;;;11.24;62.97;96060.84;2098108;28;20195;-63
2022/11/20 11:52:19;;;;;;;3.97;1.45;;;;;;;11.81;62.64;96064.56;2097573;28;20226;-63
2022/11/20 11:53:23;;;;;;;6.00;1.65;;;;;;;11.76;62.09;96045.69;2096971;28;20317;-63
2022/11/20 11:54:32;;;;;;;9.27;1.58;;;;;;;11.54;61.64;96041.72;2088362;28;20244;-63
2022/11/20 11:55:40;;;;;;;10.50;2.10;;;;;;;12.18;62.08;96045.88;2088553;28;20353;-64
2022/11/20 11:56:42;;;;;;;4.75;1.90;;;;;;;11.75;60.80;96042.22;2087517;28;20198;-63
2022/11/20 11:58:01;;;;;;;3.85;1.55;;;;;;;10.49;62.35;96034.50;2089783;28;20242;-63
2022/11/20 11:59:12;;;;;;;3.75;1.80;;;;;;;10.62;62.27;96059.00;2084153;28;20220;-62
2022/11/20 12:00:16;;;;;;;4.43;1.60;;;;;;;10.43;63.00;96040.88;2087577;28;20343;-63
2022/11/20 12:01:32;;;;;;;4.65;1.60;;;;;;;9.89;64.51;96058.47;2086139;28;20649;-63
2022/11/20 12:02:56;;;;;;;3.92;1.33;;;;;;;9.79;65.80;96052.91;2087368;28;20592;-63
2022/11/20 12:04:11;;;;;;;4.07;1.50;;;;;;;9.28;65.83;96055.41;2090696;28;20278;-61
2022/11/20 12:05:19;;;;;;;3.72;1.13;;;;;;;9.95;65.08;96063.38;2090570;28;20288;-63
2022/11/20 12:06:20;;;;;;;8.73;2.03;;;;;;;10.12;64.88;96049.47;2089595;28;20291;-63
2022/11/20 12:07:46;;;;;;;3.50;1.33;;;;;;;10.11;63.70;96059.06;2088887;28;20429;-63
2022/11/20 12:08:55;;;;;;;3.47;1.40;;;;;;;10.11;63.51;96055.63;2081761;28;20228;-63
2022/11/20 12:09:58;;;;;;;2.78;1.10;;;;;;;10.25;63.71;96060.94;2086058;28;20233;-62
2022/11/20 12:11:23;;;;;;;6.53;1.52;;;;;;;10.60;63.15;96055.66;2089056;28;20196;-62
2022/11/20 12:12:36;;;;;;;10.73;1.50;;;;;;;10.89;62.82;96061.06;2086576;28;20213;-62
2022/11/20 12:14:03;;;;;;;3.83;1.52;;;;;;;10.80;62.02;96053.72;2091279;28;20199;-63
2022/11/20 12:15:10;;;;;;;3.95;1.55;;;;;;;11.23;60.94;96051.31;2092988;28;20196;-62
2022/11/20 12:16:15;;;;;;;5.35;1.23;;;;;;;10.83;60.75;96055.31;2090084;28;20851;-62
2022/11/20 12:17:17;;;;;;;4.65;1.00;;;;;;;10.78;61.18;96035.53;2088788;28;20714;-62
2022/11/20 12:18:21;;;;;;;3.97;1.48;;;;;;;11.67;59.92;96057.53;2090204;28;20236;-63
2022/11/20 12:19:23;;;;;;;5.40;1.33;;;;;;;10.81;60.58;96055.41;2084239;28;20723;-62
2022/11/20 12:20:44;;;;;;;4.95;1.15;;;;;;;10.49;61.52;96036.25;2090111;28;20229;-62
2022/11/20 12:21:49;;;;;;;7.40;1.40;;;;;;;10.44;62.25;96052.19;2088826;28;20192;-60
2022/11/20 12:22:59;;;;;;;3.78;1.50;;;;;;;10.67;62.33;96050.94;2088592;28;20196;-60
2022/11/20 12:24:21;;;;;;;5.95;1.45;;;;;;;10.67;61.60;96052.72;2086664;28;20722;-61
2022/11/20 12:25:34;;;;;;;3.97;1.42;;;;;;;9.99;63.07;96040.59;2089646;28;20201;-63
2022/11/20 12:26:38;;;;;;;9.68;1.40;;;;;;;9.22;65.37;96045.28;2082855;28;20205;-63
2022/11/20 12:27:52;;;;;;;3.10;1.35;;;;;;;8.57;67.12;96053.56;2087757;28;20196;-63
2022/11/20 12:29:09;;;;;;;2.28;1.27;;;;;;;8.96;66.00;96037.84;2097571;28;20222;-63
2022/11/20 12:30:16;;;;;;;3.10;1.10;;;;;;;9.92;63.52;96042.69;2095554;28;20563;-63
2022/11/20 12:31:48;;;;;;;8.93;1.92;;;;;;;10.26;62.50;96041.75;2089324;28;20201;-63
2022/11/20 12:33:27;;;;;;;3.42;1.67;;;;;;;10.14;62.37;96037.19;2084133;28;20296;-62
2022/11/20 12:34:31;;;;;;;10.55;1.75;;;;;;;9.32;64.59;96034.34;2086885;28;20662;-63
2022/11/20 12:36:01;;;;;;;5.65;1.75;;;;;;;9.84;65.21;96042.22;2088604;28;20311;-63
2022/11/20 12:37:22;;;;;;;6.03;1.20;;;;;;;9.15;66.60;96039.53;2084523;28;20204;-63
2022/11/20 12:38:36;;;;;;;3.10;1.35;;;;;;;9.52;63.96;96040.31;2084562;28;20240;-63
2022/11/20 12:39:52;;;;;;;5.85;1.90;;;;;;;9.79;63.72;96029.44;2083751;28;20672;-63
2022/11/20 12:45:09;;;;;;;4.22;1.63;;;;;;;9.05;64.76;96035.69;2088624;28;20203;-63
2022/11/20 12:46:21;;;;;;;8.07;2.53;;;;;;;8.04;70.31;96047.22;2079878;28;20205;-62
2022/11/20 12:47:45;;;;;;;5.25;1.55;;;;;;;8.08;68.43;96041.00;2084908;28;20873;-63
2022/11/20 12:48:52;;;;;;;5.53;1.15;;;;;;;7.63;70.10;96037.69;2084488;28;20276;-63
2022/11/20 12:50:12;;;;;;;4.55;1.63;;;;;;;7.99;67.92;96043.06;2089031;28;20194;-63
2022/11/20 12:51:42;;;;;;;6.68;0.90;;;;;;;7.58;69.13;96030.13;2091547;28;21029;-63
2022/11/20 12:53:00;;;;;;;4.10;1.10;;;;;;;7.39;69.64;96039.59;2089351;28;20219;-63
2022/11/20 12:54:34;;;;;;;2.78;1.08;;;;;;;7.58;69.15;96048.31;2090101;28;20753;-62
2022/11/20 12:55:48;;;;;;;3.42;1.20;;;;;;;7.45;67.51;96055.78;2092525;28;20209;-62
2022/11/20 12:57:47;;;;;;;5.55;1.58;;;;;;;8.07;67.25;96049.69;2092760;28;20246;-60
2022/11/20 12:59:20;;;;;;;2.28;1.00;;;;;;;9.23;64.67;96036.56;2062719;28;20246;-63
2022/11/20 13:00:25;;;;;;;9.45;1.10;;;;;;;9.36;63.10;96029.84;2081394;28;20204;-62
2022/11/20 13:01:48;;;;;;;3.35;1.05;;;;;;;9.52;62.69;96040.31;2082008;28;20670;-62
2022/11/20 13:03:07;;;;;;;2.78;1.30;;;;;;;9.28;62.28;96027.63;2080119;28;20208;-63
2022/11/20 13:04:33;;;;;;;8.82;2.45;;;;;;;9.60;62.45;96032.97;2083654;28;20355;-62
2022/11/20 13:06:00;;;;;;;7.35;2.97;;;;;;;9.77;61.50;96033.88;2084898;28;20583;-62
2022/11/20 13:07:11;;;;;;;3.20;1.30;;;;;;;8.47;63.67;96029.72;2081687;28;20202;-61
2022/11/20 13:08:38;;;;;;;7.15;1.10;;;;;;;7.74;67.66;96030.28;2084151;28;20205;-62
2022/11/20 13:09:46;;;;;;;7.95;1.27;;;;;;;7.64;68.43;96045.47;2080572;28;20263;-63
2022/11/20 13:11:02;;;;;;;4.30;1.05;;;;;;;7.77;67.72;96029.31;2092761;28;20562;-63
2022/11/20 13:12:29;;;;;;;5.07;1.10;;;;;;;7.89;66.14;96039.19;2091501;28;20244;-63
2022/11/20 13:13:56;;;;;;;7.20;1.48;;;;;;;7.48;67.80;96034.84;2090877;28;20288;-62
2022/11/20 13:15:17;;;;;;;5.78;1.20;;;;;;;7.28;68.40;96042.63;2089825;28;20196;-64
2022/11/20 13:16:21;;;;;;;7.30;1.30;;;;;;;7.06;68.82;96037.47;2089995;28;20197;-64
2022/11/20 13:17:30;;;;;;;2.70;0.80;;;;;;;7.85;67.81;96032.44;2087820;28;20201;-64
2022/11/20 13:18:41;;;;;;;2.53;0.98;;;;;;;8.20;66.11;96037.00;2087856;28;20621;-63
2022/11/20 13:19:49;;;;;;;3.08;1.05;;;;;;;8.20;66.26;96032.63;2092750;28;20254;-65
2022/11/20 13:20:51;;;;;;;9.73;1.20;;;;;;;7.67;67.62;96016.72;2088623;28;20644;-64
2022/11/20 13:21:53;;;;;;;6.60;1.20;;;;;;;7.29;68.06;96018.38;2094865;28;20279;-65
2022/11/20 13:22:57;;;;;;;1.98;0.85;;;;;;;7.05;68.29;96038.34;2093741;28;20199;-64
2022/11/20 13:24:26;;;;;;;5.05;1.02;;;;;;;6.84;69.38;96014.97;2088774;28;20220;-64
2022/11/20 13:25:35;;;;;;;5.80;1.70;;;;;;;6.88;70.15;96023.47;2086179;28;20649;-64
2022/11/20 13:26:37;;;;;;;3.92;1.40;;;;;;;6.71;70.64;96022.38;2090521;28;20603;-62
2022/11/20 13:27:47;;;;;;;8.25;1.95;;;;;;;6.62;71.95;96026.19;2089389;28;20232;-64
2022/11/20 13:29:21;;;;;;;3.85;1.42;;;;;;;6.47;71.75;96030.22;2089841;28;20217;-64
2022/11/20 13:30:25;;;;;;;2.92;1.40;;;;;;;6.40;72.30;96025.31;2079294;28;20202;-64
2022/11/20 13:31:35;;;;;;;3.50;1.50;;;;;;;6.41;72.43;96027.84;2085325;28;20200;-64
2022/11/20 13:32:47;;;;;;;1.75;0.90;;;;;;;6.20;71.73;96025.16;2090094;28;20225;-63
2022/11/20 13:33:54;;;;;;;1.70;0.90;;;;;;;6.22;72.67;96025.09;2092439;28;20307;-63
2022/11/20 13:34:58;;;;;;;2.67;1.15;;;;;;;6.18;72.98;96027.00;2089949;28;20350;-64
2022/11/20 13:36:06;;;;;;;3.47;1.08;;;;;;;6.18;73.58;96028.72;2091236;28;20268;-64
2022/11/20 13:37:34;;;;;;;3.20;1.27;;;;;;;6.14;73.05;96020.19;2089920;28;20283;-64
2022/11/20 13:38:51;;;;;;;2.53;1.33;;;;;;;5.97;74.14;95997.47;2085592;28;20189;-64
2022/11/20 13:39:52;;;;;;;5.65;1.50;;;;;;;6.15;74.31;96026.25;2089691;28;20645;-64
2022/11/20 13:40:56;;;;;;;1.83;1.08;;;;;;;6.18;74.58;96023.53;2092028;28;20227;-64
2022/11/20 13:42:20;;;;;;;8.38;1.10;;;;;;;6.18;74.65;96029.56;2092713;28;20192;-64
2022/11/20 13:43:44;;;;;;;8.00;1.30;;;;;;;6.21;74.82;96013.06;2090454;28;20675;-64
2022/11/20 13:44:55;;;;;;;3.55;1.40;;;;;;;6.25;74.74;96012.03;2088990;28;20501;-64
2022/11/20 13:46:00;;;;;;;4.55;0.85;;;;;;;6.36;74.97;96015.06;2088871;28;20264;-64
2022/11/20 13:47:02;;;;;;;2.75;1.20;;;;;;;6.35;74.66;96015.13;2088505;28;20809;-64
2022/11/20 13:48:21;;;;;;;2.83;1.10;;;;;;;6.41;75.08;96017.47;2086513;28;20664;-64
2022/11/20 13:49:54;;;;;;;2.75;1.13;;;;;;;6.58;75.29;96023.75;2088142;28;20805;-64
2022/11/20 13:50:55;;;;;;;4.63;1.40;;;;;;;6.61;75.75;96021.06;2081855;28;20316;-64
2022/11/20 13:52:08;;;;;;;4.57;1.80;;;;;;;6.73;75.75;96024.91;2089852;28;20537;-64
2022/11/20 13:53:32;;;;;;;5.57;2.20;;;;;;;6.74;74.20;96018.84;2090858;28;20196;-64
2022/11/20 13:54:43;;;;;;;6.38;2.00;;;;;;;6.83;74.91;96011.53;2086718;28;20227;-64
2022/11/20 13:55:59;;;;;;;2.30;1.40;;;;;;;6.65;74.68;95994.94;2088927;28;20205;-64
2022/11/20 13:57:12;;;;;;;7.97;1.30;;;;;;;6.70;74.09;96010.31;2088885;28;20856;-64
2022/11/20 13:58:19;;;;;;;3.80;1.25;;;;;;;6.61;74.54;96011.50;2089025;28;20201;-64
2022/11/20 13:59:23;;;;;;;7.15;1.92;;;;;;;6.54;74.29;96010.91;2087742;28;20283;-64
2022/11/20 14:00:26;;;;;;;3.83;1.50;;;;;;;6.56;75.13;96012.63;2085928;28;20197;-64
2022/11/20 14:01:34;;;;;;;3.83;1.30;;;;;;;6.46;74.86;96012.97;2090521;28;20205;-64
2022/11/20 14:02:36;;;;;;;6.47;1.13;;;;;;;6.32;74.80;96007.47;2090541;28;20691;-63
2022/11/20 14:03:38;;;;;;;3.90;1.45;;;;;;;6.28;74.56;96009.31;2088927;28;20727;-64
2022/11/20 14:05:01;;;;;;;2.97;1.20;;;;;;;6.22;74.92;96001.75;2097617;28;20230;-64
2022/11/20 14:06:05;;;;;;;2.33;1.10;;;;;;;6.30;75.43;96001.50;2096025;28;20201;-64
2022/11/20 14:07:07;;;;;;;15.07;2.83;;;;;;;6.29;75.37;96000.63;2087617;28;20201;-64
2022/11/20 14:08:20;;;;;;;10.55;4.10;;;;;;;6.28;75.07;96003.28;2090418;28;20227;-64
2022/11/20 14:09:31;;;;;;;8.73;3.25;;;;;;;6.19;73.40;95997.53;2089722;28;20295;-63
2022/11/20 14:10:39;;;;;;;7.38;3.67;;;;;;;6.23;74.16;96003.47;2105832;28;20195;-64
2022/11/20 14:11:47;;;;;;;11.20;3.95;;;;;;;6.21;73.99;96002.69;2098013;28;20191;-64
2022/11/20 14:12:50;;;;;;;5.88;2.28;;;;;;;6.27;74.19;96006.78;2088311;28;20287;-64
2022/11/20 14:13:54;;;;;;;5.38;2.30;;;;;;;6.23;72.91;96007.81;2091442;28;20231;-64
2022/11/20 14:14:55;;;;;;;5.32;1.77;;;;;;;6.19;72.65;96001.91;2092460;28;20591;-63
2022/11/20 14:15:58;;;;;;;2.20;1.00;;;;;;;6.15;72.41;96002.91;2091953;28;20544;-64
2022/11/20 14:17:17;;;;;;;6.18;1.40;;;;;;;6.10;72.63;95997.91;2090934;28;20236;-64
2022/11/20 14:18:22;;;;;;;3.25;1.48;;;;;;;5.98;72.87;95988.84;2090679;28;20229;-63
2022/11/20 14:19:28;;;;;;;9.23;2.03;;;;;;;6.09;73.03;95995.38;2084650;28;20237;-64
2022/11/20 14:20:31;;;;;;;5.65;2.00;;;;;;;6.08;72.72;95996.25;2092595;28;20193;-64
2022/11/20 14:21:32;;;;;;;9.68;4.93;;;;;;;6.06;73.20;95983.38;2092737;28;20192;-64
2022/11/20 14:22:34;;;;;;;9.55;3.38;;;;;;;6.08;73.35;95994.50;2090227;28;20196;-64
2022/11/20 14:23:35;;;;;;;14.40;5.40;;;;;;;5.99;73.03;95993.13;2089254;28;20656;-64
2022/11/20 14:24:37;;;;;;;19.08;8.35;;;;;;;6.12;73.60;95998.69;2089789;28;20204;-65
2022/11/20 14:25:42;;;;;;;16.15;5.78;;;;;;;6.15;73.34;96002.91;2089034;28;20559;-64
2022/11/20 14:26:48;;;;;;;5.00;1.50;;;;;;;6.01;72.54;95993.06;2091258;28;20211;-64
2022/11/20 14:27:56;;;;;;;6.80;1.20;;;;;;;5.98;72.16;95988.84;2091651;28;20281;-64
2022/11/20 14:28:58;;;;;;;5.32;1.75;;;;;;;6.07;72.05;95976.41;2081761;28;20227;-63
2022/11/20 14:30:01;;;;;;;5.93;2.50;;;;;;;6.63;70.67;95988.13;2079826;28;20233;-63
2022/11/20 14:31:02;;;;;;;4.13;1.48;;;;;;;6.87;68.91;95996.69;2086341;28;20695;-63
2022/11/20 14:32:04;;;;;;;5.22;1.60;;;;;;;6.96;68.51;95978.13;2091784;28;20207;-63
2022/11/20 14:33:06;;;;;;;4.95;1.45;;;;;;;7.09;68.60;95994.03;2092415;28;20207;-64
2022/11/20 14:34:17;;;;;;;5.68;1.58;;;;;;;6.74;69.18;95990.28;2087329;28;20219;-64
2022/11/20 14:35:25;;;;;;;3.28;1.75;;;;;;;6.67;69.72;95985.34;2087205;28;20280;-64
2022/11/20 14:36:27;;;;;;;6.53;1.92;;;;;;;6.51;70.20;95999.81;2088937;28;20261;-63
2022/11/20 14:37:36;;;;;;;3.53;1.65;;;;;;;6.31;70.81;95983.28;2091030;28;20205;-63
2022/11/20 14:38:38;;;;;;;6.82;2.05;;;;;;;6.24;70.95;95994.78;2087814;28;20219;-63
2022/11/20 14:39:49;;;;;;;3.00;1.33;;;;;;;6.17;71.14;95990.72;2089862;28;20669;-64
2022/11/20 14:40:50;;;;;;;3.83;1.33;;;;;;;6.10;71.83;95981.50;2090705;28;20193;-63
2022/11/20 14:41:53;;;;;;;5.32;1.65;;;;;;;6.07;71.69;95976.41;2092582;28;20287;-64
2022/11/20 14:42:55;;;;;;;3.60;1.65;;;;;;;5.89;71.87;95945.06;2092270;28;20188;-64
2022/11/20 14:43:58;;;;;;;4.97;2.10;;;;;;;6.10;71.91;95987.53;2091027;28;20217;-64
2022/11/20 14:45:01;;;;;;;3.95;1.88;;;;;;;6.10;72.55;95969.38;2084590;28;20540;-64
2022/11/20 14:46:05;;;;;;;4.45;1.50;;;;;;;6.09;72.08;95972.03;2089734;28;20655;-63
2022/11/20 14:47:12;;;;;;;4.32;1.10;;;;;;;6.07;72.13;95979.00;2090009;28;20280;-64
2022/11/20 14:48:15;;;;;;;4.53;1.20;;;;;;;5.92;72.52;95952.75;2091125;28;20208;-63
2022/11/20 14:49:17;;;;;;;2.40;1.00;;;;;;;5.95;72.91;95968.16;2089647;28;20695;-63
2022/11/20 14:50:22;;;;;;;1.90;1.10;;;;;;;5.92;73.04;95976.06;2089370;28;21142;-64
2022/11/20 14:51:33;;;;;;;4.20;1.10;;;;;;;5.83;73.28;95966.03;2084029;28;20209;-63
2022/11/20 14:52:34;;;;;;;6.30;1.33;;;;;;;5.80;73.28;95972.19;2088319;28;20193;-64
2022/11/20 14:53:35;;;;;;;5.57;1.25;;;;;;;5.80;73.48;95959.22;2089194;28;20235;-64
2022/11/20 14:54:45;;;;;;;5.45;1.23;;;;;;;5.83;73.99;95964.28;2090575;28;20205;-64
2022/11/20 14:55:55;;;;;;;2.58;1.42;;;;;;;5.87;73.78;95952.06;2088076;28;20227;-64
2022/11/20 14:57:03;;;;;;;6.38;1.98;;;;;;;5.78;73.96;95936.88;2087140;28;20284;-63
2022/11/20 14:58:22;;;;;;;2.80;1.35;;;;;;;5.82;73.96;95954.00;2086041;28;20201;-64
2022/11/20 14:59:32;;;;;;;4.72;1.10;;;;;;;5.64;74.40;95938.22;2088129;28;20687;-64
2022/11/20 15:00:35;;;;;;;5.75;1.40;;;;;;;5.63;74.63;95948.63;2093359;28;20287;-63
2022/11/20 15:01:37;;;;;;;5.55;1.42;;;;;;;5.65;74.80;95950.28;2086907;28;20281;-64
2022/11/20 15:02:41;;;;;;;5.45;1.30;;;;;;;5.60;75.26;95957.34;2091554;28;20287;-64
2022/11/20 15:03:43;;;;;;;2.72;1.00;;;;;;;5.51;74.84;95949.91;2090463;28;20207;-63
2022/11/20 15:04:59;;;;;;;2.75;1.13;;;;;;;5.47;75.45;95948.31;2083727;28;20201;-64
2022/11/20 15:06:01;;;;;;;4.13;1.77;;;;;;;5.44;75.32;95943.28;2090754;28;20207;-64
2022/11/20 15:07:02;;;;;;;4.65;1.30;;;;;;;5.26;76.03;95916.25;2094093;28;20204;-64
2022/11/20 15:08:09;;;;;;;3.58;1.70;;;;;;;5.37;76.14;95942.63;2090037;28;20219;-63
2022/11/20 15:09:14;;;;;;;2.80;1.60;;;;;;;5.38;76.07;95939.13;2090665;28;20248;-64
2022/11/20 15:10:18;;;;;;;3.70;1.40;;;;;;;5.32;75.66;95937.63;2087943;28;20278;-63
2022/11/20 15:11:27;;;;;;;9.90;1.60;;;;;;;5.33;76.32;95936.72;2085155;28;20220;-63
2022/11/20 15:12:35;;;;;;;7.22;1.45;;;;;;;5.29;75.90;95934.28;2089948;28;20200;-63
2022/11/20 15:13:38;;;;;;;6.90;1.63;;;;;;;5.25;76.27;95930.97;2088138;28;20188;-63
2022/11/20 15:14:40;;;;;;;6.63;2.05;;;;;;;5.21;76.60;95934.56;2091249;28;20530;-63
2022/11/20 15:15:51;;;;;;;3.60;1.00;;;;;;;5.19;76.68;95931.16;2089350;28;20231;-64
2022/11/20 15:16:54;;;;;;;6.82;1.52;;;;;;;5.10;77.13;95926.31;2089281;28;20331;-64
2022/11/20 15:17:55;;;;;;;5.15;1.77;;;;;;;4.91;77.13;95895.88;2089044;28;20196;-63
2022/11/20 15:18:57;;;;;;;4.38;1.30;;;;;;;5.13;77.07;95933.97;2092155;28;20244;-63
2022/11/20 15:20:01;;;;;;;9.23;2.00;;;;;;;5.07;77.33;95927.28;2093150;28;20199;-63
2022/11/20 15:21:06;;;;;;;3.38;1.40;;;;;;;5.07;77.17;95943.63;2089752;28;20196;-63
2022/11/20 15:22:18;;;;;;;5.97;2.38;;;;;;;5.00;78.06;95936.13;2090849;28;20197;-63
2022/11/20 15:23:20;;;;;;;6.75;2.70;;;;;;;5.05;77.49;95942.00;2090581;28;20246;-63
2022/11/20 15:24:21;;;;;;;5.05;2.13;;;;;;;5.00;77.63;95939.59;2088500;28;20252;-63
2022/11/20 15:25:28;;;;;;;10.68;2.08;;;;;;;4.74;77.58;95899.06;2090001;28;20291;-63
2022/11/20 15:26:29;;;;;;;7.90;2.70;;;;;;;4.98;77.71;95937.94;2090790;28;20270;-63
2022/11/20 15:27:30;;;;;;;11.20;3.63;;;;;;;4.98;77.90;95945.72;2092713;28;20584;-63
2022/11/20 15:28:49;;;;;;;9.40;4.15;;;;;;;4.95;78.02;95938.03;2090323;28;20283;-63
2022/11/20 15:29:51;;;;;;;10.23;3.80;;;;;;;4.93;78.26;95937.22;2089035;28;20270;-63
